Time;durP1;ratioP1;P1;durP2;ratioP2;P2;SDS_P1;SDS_P2;PMS_P1;PMS_P2;Temp;Humidity;BMP_temperature;BMP_pressure;BME280_temperature;BME280_humidity;BME280_pressure;Samples;Min_cycle;Max_cycle;Signal;HPM_P1;HPM_P2
2024/02/06 00:02:01;;;;;;;0.30;0.30;;;9.50;99.90;;;;;;6243420;23;20070;-83
2024/02/06 00:04:27;;;;;;;0.45;0.45;;;9.50;99.90;;;;;;6242530;23;20020;-83
2024/02/06 00:06:53;;;;;;;1.30;1.30;;;9.40;99.90;;;;;;6245294;22;20078;-82
2024/02/06 00:09:20;;;;;;;;;;;9.50;99.90;;;;;;6243939;23;20047;-82
2024/02/06 00:11:46;;;;;;;0.37;0.37;;;9.50;99.90;;;;;;6246621;23;19930;-85
2024/02/06 00:14:11;;;;;;;0.82;0.82;;;9.40;99.90;;;;;;6198998;23;20240;-82
2024/02/06 00:16:37;;;;;;;0.40;0.40;;;9.40;99.90;;;;;;6250818;23;20043;-84
2024/02/06 00:19:05;;;;;;;0.40;0.40;;;9.40;99.90;;;;;;6224899;23;20066;-84
2024/02/06 00:21:33;;;;;;;0.40;0.40;;;9.40;99.90;;;;;;6249229;23;20012;-85
2024/02/06 00:24:03;;;;;;;0.40;0.40;;;9.40;99.90;;;;;;6249167;23;20016;-84
2024/02/06 00:26:28;;;;;;;0.50;0.50;;;9.40;99.90;;;;;;6223917;23;20023;-84
2024/02/06 00:29:00;;;;;;;3.85;2.13;;;9.40;99.90;;;;;;6201543;23;20075;-84
2024/02/06 00:31:26;;;;;;;7.40;1.10;;;9.40;99.90;;;;;;6249864;22;20012;-82
2024/02/06 00:33:53;;;;;;;0.93;0.93;;;9.40;99.90;;;;;;6197270;23;20050;-84
2024/02/06 00:36:18;;;;;;;2.40;2.15;;;9.40;99.90;;;;;;6222243;23;20028;-82
2024/02/06 00:38:45;;;;;;;1.08;0.65;;;9.40;99.90;;;;;;6250274;22;20019;-84
2024/02/06 00:41:11;;;;;;;0.60;0.60;;;9.40;99.90;;;;;;6200374;23;20016;-83
2024/02/06 00:43:37;;;;;;;;;;;9.40;99.90;;;;;;6225450;23;20012;-84
2024/02/06 00:46:02;;;;;;;0.40;0.40;;;9.50;99.90;;;;;;6251630;23;20216;-84
2024/02/06 00:48:28;;;;;;;0.45;0.45;;;9.40;99.90;;;;;;6249715;23;20012;-83
2024/02/06 00:50:54;;;;;;;0.55;0.55;;;9.50;99.90;;;;;;6250872;23;20027;-85
2024/02/06 00:53:20;;;;;;;0.43;0.43;;;9.50;99.90;;;;;;6226191;23;20024;-83
2024/02/06 00:55:45;;;;;;;0.50;0.50;;;9.50;99.90;;;;;;6251331;23;20782;-83
2024/02/06 00:58:11;;;;;;;0.35;0.35;;;9.50;99.90;;;;;;6252208;22;20016;-84
2024/02/06 01:00:37;;;;;;;0.47;0.47;;;9.50;99.90;;;;;;6250528;23;20020;-83
2024/02/06 01:03:03;;;;;;;0.38;0.38;;;9.60;99.90;;;;;;6252690;22;20005;-82
2024/02/06 01:05:28;;;;;;;0.50;0.50;;;9.60;99.90;;;;;;6225300;23;20027;-84
2024/02/06 01:07:54;;;;;;;0.95;0.95;;;9.60;99.90;;;;;;6224993;23;20020;-83
2024/02/06 01:10:20;;;;;;;1.60;1.50;;;9.60;99.90;;;;;;6251640;22;20020;-80
2024/02/06 01:12:45;;;;;;;0.43;0.43;;;9.60;99.90;;;;;;6252086;22;20016;-82
2024/02/06 01:15:20;;;;;;;0.30;0.30;;;9.60;99.90;;;;;;6253487;22;20012;-83
2024/02/06 01:17:46;;;;;;;0.50;0.50;;;9.60;99.90;;;;;;6225974;23;20088;-84
2024/02/06 01:20:15;;;;;;;0.80;0.80;;;9.70;99.90;;;;;;6251611;23;20008;-84
2024/02/06 01:22:49;;;;;;;1.85;1.75;;;9.60;99.90;;;;;;6200213;23;20090;-85
2024/02/06 01:25:16;;;;;;;0.52;0.52;;;9.70;99.90;;;;;;6250861;23;20024;-83
2024/02/06 01:27:42;;;;;;;2.15;1.25;;;9.70;99.90;;;;;;6226931;23;20020;-85
2024/02/06 01:30:08;;;;;;;1.30;1.02;;;9.70;99.90;;;;;;6201381;23;20170;-82
2024/02/06 01:32:34;;;;;;;12.48;1.05;;;9.70;99.90;;;;;;6251373;23;20498;-84
2024/02/06 01:35:00;;;;;;;1.27;1.27;;;9.70;99.90;;;;;;6226559;23;20036;-84
2024/02/06 01:37:25;;;;;;;0.70;0.70;;;9.70;99.90;;;;;;6250931;23;20041;-83
2024/02/06 01:39:51;;;;;;;3.53;1.20;;;9.70;99.90;;;;;;6251576;23;20027;-85
2024/02/06 01:42:20;;;;;;;0.90;0.88;;;9.70;99.90;;;;;;6253364;23;20008;-83
2024/02/06 01:44:47;;;;;;;1.75;0.98;;;9.70;99.90;;;;;;6251490;23;20340;-80
2024/02/06 01:47:19;;;;;;;3.13;1.00;;;9.70;99.90;;;;;;6251710;23;20046;-80
2024/02/06 01:49:45;;;;;;;0.40;0.40;;;9.80;99.90;;;;;;6201852;23;20526;-82
2024/02/06 01:52:12;;;;;;;5.40;1.90;;;9.80;99.90;;;;;;6202631;23;20020;-84
2024/02/06 01:54:44;;;;;;;0.40;0.40;;;9.80;99.90;;;;;;6250846;23;20024;-84
2024/02/06 01:57:09;;;;;;;0.60;0.60;;;9.70;99.90;;;;;;6226653;23;20012;-83
2024/02/06 01:59:35;;;;;;;;;;;9.70;99.90;;;;;;6225315;23;20016;-85
2024/02/06 02:02:01;;;;;;;0.88;0.88;;;9.80;99.90;;;;;;6253136;23;19923;-82
2024/02/06 02:04:27;;;;;;;2.33;0.90;;;9.80;99.90;;;;;;6255611;22;20020;-84
2024/02/06 02:06:58;;;;;;;0.35;0.35;;;9.80;99.90;;;;;;6252330;22;20306;-82
2024/02/06 02:09:29;;;;;;;0.40;0.40;;;9.80;99.90;;;;;;6248824;22;20016;-82
2024/02/06 02:11:55;;;;;;;0.80;0.80;;;9.80;99.90;;;;;;6244918;23;20012;-83
2024/02/06 02:14:21;;;;;;;0.40;0.40;;;9.70;99.90;;;;;;6247959;22;20047;-82
2024/02/06 02:16:53;;;;;;;1.15;1.15;;;9.70;99.90;;;;;;6250849;22;20019;-81
2024/02/06 02:19:21;;;;;;;0.50;0.50;;;9.70;99.90;;;;;;6249409;22;20012;-81
2024/02/06 02:21:47;;;;;;;1.40;1.33;;;9.70;99.90;;;;;;6246402;22;20046;-80
2024/02/06 02:24:13;;;;;;;0.40;0.40;;;9.70;99.90;;;;;;6247390;23;20043;-82
2024/02/06 02:26:39;;;;;;;1.00;0.50;;;9.70;99.90;;;;;;6246408;23;20012;-82
2024/02/06 02:29:07;;;;;;;0.50;0.50;;;9.70;99.90;;;;;;6246326;23;20016;-82
2024/02/06 02:31:39;;;;;;;0.77;0.77;;;9.70;99.90;;;;;;6221712;23;20435;-80
2024/02/06 02:34:07;;;;;;;0.73;0.73;;;9.70;99.90;;;;;;6198171;23;20024;-82
2024/02/06 02:36:33;;;;;;;0.55;0.55;;;9.70;99.90;;;;;;6223016;23;20039;-82
2024/02/06 02:38:59;;;;;;;0.65;0.65;;;9.80;99.90;;;;;;6246255;23;20008;-83
2024/02/06 02:41:31;;;;;;;0.32;0.32;;;9.70;99.90;;;;;;6243856;23;20058;-80
2024/02/06 02:43:57;;;;;;;1.40;1.30;;;9.70;99.90;;;;;;6195677;23;20019;-82
2024/02/06 02:46:23;;;;;;;0.60;0.60;;;9.70;99.90;;;;;;6196215;23;20020;-80
2024/02/06 02:48:55;;;;;;;0.63;0.55;;;9.70;99.90;;;;;;6247440;23;20051;-80
2024/02/06 02:51:20;;;;;;;0.43;0.43;;;9.70;99.90;;;;;;6245138;23;20020;-81
2024/02/06 02:53:55;;;;;;;0.57;0.55;;;9.80;99.90;;;;;;6247057;23;20027;-81
2024/02/06 02:56:21;;;;;;;0.40;0.40;;;9.70;99.90;;;;;;6247364;23;20015;-82
2024/02/06 02:58:48;;;;;;;;;;;9.70;99.90;;;;;;6197121;23;20008;-81
2024/02/06 03:01:15;;;;;;;2.08;1.98;;;9.70;99.90;;;;;;6245519;23;19919;-82
2024/02/06 03:03:41;;;;;;;1.02;1.02;;;9.70;99.90;;;;;;6246068;23;20110;-82
2024/02/06 03:06:18;;;;;;;0.40;0.40;;;9.70;99.90;;;;;;6247193;22;20059;-79
2024/02/06 03:08:44;;;;;;;0.98;0.98;;;9.80;99.90;;;;;;6246274;23;20031;-80
2024/02/06 03:11:11;;;;;;;0.70;0.70;;;9.80;99.90;;;;;;6220164;23;20532;-82
2024/02/06 03:13:41;;;;;;;34.58;5.05;;;9.80;99.90;;;;;;6244756;23;20016;-83
2024/02/06 03:16:07;;;;;;;0.77;0.77;;;9.70;99.90;;;;;;6244611;23;20391;-82
2024/02/06 03:18:33;;;;;;;1.70;1.60;;;9.80;99.90;;;;;;6217118;23;20012;-79
2024/02/06 03:21:05;;;;;;;0.73;0.73;;;9.70;99.90;;;;;;6249514;22;20018;-81
2024/02/06 03:23:36;;;;;;;0.98;0.98;;;9.70;99.90;;;;;;6225426;23;20105;-81
2024/02/06 03:26:09;;;;;;;0.43;0.43;;;9.70;99.90;;;;;;6248382;23;20027;-81
2024/02/06 03:28:35;;;;;;;3.90;2.85;;;9.60;99.90;;;;;;6248481;23;20016;-82
2024/02/06 03:31:00;;;;;;;0.43;0.43;;;9.60;99.90;;;;;;6248888;23;20016;-82
2024/02/06 03:33:27;;;;;;;0.35;0.35;;;9.60;99.90;;;;;;6249541;23;20055;-82
2024/02/06 03:35:53;;;;;;;0.55;0.55;;;9.60;99.90;;;;;;6222177;23;20728;-83
2024/02/06 03:38:19;;;;;;;0.32;0.32;;;9.60;99.90;;;;;;6247976;23;20440;-82
2024/02/06 03:40:46;;;;;;;0.52;0.52;;;9.60;99.90;;;;;;6221323;23;20344;-82
2024/02/06 03:43:12;;;;;;;0.82;0.82;;;9.70;99.90;;;;;;6247196;23;20313;-83
2024/02/06 03:45:37;;;;;;;5.38;0.77;;;9.70;99.90;;;;;;6248061;22;20061;-81
2024/02/06 03:48:03;;;;;;;1.95;1.85;;;9.80;99.90;;;;;;6248092;23;20019;-81
2024/02/06 03:50:29;;;;;;;0.50;0.50;;;9.70;99.90;;;;;;6225925;23;20072;-82
2024/02/06 03:52:55;;;;;;;0.40;0.40;;;9.70;99.90;;;;;;6249927;23;20013;-83
2024/02/06 03:55:21;;;;;;;0.40;0.40;;;9.70;99.90;;;;;;6250582;22;20050;-82
2024/02/06 03:57:46;;;;;;;0.98;0.98;;;9.70;99.90;;;;;;6246445;23;20344;-80
2024/02/06 04:00:13;;;;;;;0.50;0.50;;;9.70;99.90;;;;;;6246393;23;20016;-82
2024/02/06 04:02:39;;;;;;;1.08;1.08;;;9.70;99.90;;;;;;6243526;23;20632;-80
2024/02/06 04:05:07;;;;;;;0.45;0.45;;;9.70;99.90;;;;;;6243541;23;20051;-83
2024/02/06 04:07:32;;;;;;;0.90;0.90;;;9.70;99.90;;;;;;6219192;23;20020;-82
2024/02/06 04:09:58;;;;;;;0.40;0.40;;;9.70;99.90;;;;;;6244758;23;20792;-82
2024/02/06 04:12:30;;;;;;;0.40;0.40;;;9.70;99.90;;;;;;6222403;23;20074;-81
2024/02/06 04:14:57;;;;;;;0.60;0.60;;;9.70;99.90;;;;;;6245708;23;20096;-82
2024/02/06 04:17:23;;;;;;;0.90;0.90;;;9.70;99.90;;;;;;6221657;23;20012;-81
2024/02/06 04:19:49;;;;;;;;;;;9.80;99.90;;;;;;6197340;23;20035;-81
2024/02/06 04:22:16;;;;;;;0.50;0.50;;;9.80;99.90;;;;;;6223345;23;20305;-81
2024/02/06 04:24:42;;;;;;;1.23;1.23;;;9.80;99.90;;;;;;6248396;23;20517;-80
2024/02/06 04:27:07;;;;;;;1.85;1.25;;;9.80;99.90;;;;;;6199149;23;20119;-82
2024/02/06 04:29:34;;;;;;;0.40;0.40;;;9.70;99.90;;;;;;6249921;22;20016;-82
2024/02/06 04:32:00;;;;;;;0.50;0.50;;;9.70;99.90;;;;;;6249036;22;20146;-81
2024/02/06 04:34:27;;;;;;;0.73;0.73;;;9.70;99.90;;;;;;6222670;23;20022;-80
2024/02/06 04:36:59;;;;;;;0.68;0.68;;;9.70;99.90;;;;;;6249466;23;20078;-80
2024/02/06 04:39:24;;;;;;;5.18;1.65;;;9.70;99.90;;;;;;6249312;23;20639;-81
2024/02/06 04:41:52;;;;;;;0.40;0.40;;;9.70;99.90;;;;;;6248976;23;20035;-82
2024/02/06 04:44:18;;;;;;;1.23;0.88;;;9.70;99.90;;;;;;6223126;23;20023;-81
2024/02/06 04:46:50;;;;;;;0.45;0.45;;;9.70;99.90;;;;;;6225320;23;20098;-82
2024/02/06 04:49:17;;;;;;;0.40;0.40;;;9.70;99.90;;;;;;6250733;22;20046;-82
2024/02/06 04:51:44;;;;;;;2.38;1.00;;;9.70;99.90;;;;;;6251875;22;20008;-80
2024/02/06 04:54:09;;;;;;;0.47;0.47;;;9.70;99.90;;;;;;6224299;23;20016;-80
2024/02/06 04:56:35;;;;;;;1.15;1.15;;;9.70;99.90;;;;;;6225123;23;20022;-81
2024/02/06 04:59:01;;;;;;;2.08;1.85;;;9.60;99.90;;;;;;6223346;23;20031;-80
2024/02/06 05:01:27;;;;;;;0.45;0.45;;;9.60;99.90;;;;;;6222831;23;20019;-81
2024/02/06 05:03:52;;;;;;;7.50;2.13;;;9.60;99.90;;;;;;6246840;23;20063;-81
2024/02/06 05:06:18;;;;;;;0.55;0.52;;;9.70;99.90;;;;;;6221345;23;20016;-82
2024/02/06 05:08:45;;;;;;;0.30;0.30;;;9.70;99.90;;;;;;6245148;23;20024;-82
2024/02/06 05:11:12;;;;;;;2.53;0.57;;;9.70;99.90;;;;;;6220272;23;20020;-83
2024/02/06 05:13:39;;;;;;;0.30;0.30;;;9.70;99.90;;;;;;6245577;23;20016;-82
2024/02/06 05:16:07;;;;;;;0.85;0.85;;;9.80;99.90;;;;;;6248420;23;20456;-82
2024/02/06 05:18:32;;;;;;;0.40;0.40;;;9.70;99.90;;;;;;6250120;23;20008;-81
2024/02/06 05:21:01;;;;;;;0.55;0.55;;;9.70;99.90;;;;;;6221298;23;20066;-79
2024/02/06 05:23:27;;;;;;;0.55;0.55;;;9.70;99.90;;;;;;6217796;23;20012;-79
2024/02/06 05:25:52;;;;;;;0.65;0.65;;;9.80;99.90;;;;;;6169237;23;20058;-80
2024/02/06 05:28:20;;;;;;;0.30;0.30;;;9.80;99.90;;;;;;6219475;23;20020;-78
2024/02/06 05:30:46;;;;;;;0.80;0.80;;;9.70;99.90;;;;;;6249165;22;20016;-80
2024/02/06 05:33:13;;;;;;;;;;;9.80;99.90;;;;;;6247683;23;20507;-81
2024/02/06 05:35:42;;;;;;;0.40;0.40;;;9.80;99.90;;;;;;6247058;22;19915;-80
2024/02/06 05:38:07;;;;;;;0.47;0.47;;;9.70;99.90;;;;;;6220815;23;20655;-79
2024/02/06 05:40:40;;;;;;;0.50;0.50;;;9.80;99.90;;;;;;6247503;23;20340;-82
2024/02/06 05:43:07;;;;;;;0.50;0.50;;;9.80;99.90;;;;;;6248993;23;20008;-81
2024/02/06 05:45:34;;;;;;;2.83;1.38;;;9.80;99.90;;;;;;6248803;22;20027;-80
2024/02/06 05:47:59;;;;;;;1.38;1.27;;;9.80;99.90;;;;;;6220228;23;20030;-80
2024/02/06 05:50:27;;;;;;;0.60;0.60;;;9.80;99.90;;;;;;6246378;23;20043;-82
2024/02/06 05:52:54;;;;;;;0.32;0.32;;;9.80;99.90;;;;;;6245992;23;20023;-82
2024/02/06 05:55:21;;;;;;;1.15;1.08;;;9.90;99.90;;;;;;6246052;23;20064;-81
2024/02/06 05:57:48;;;;;;;1.23;1.15;;;9.80;99.90;;;;;;6245444;23;20078;-81
2024/02/06 06:00:15;;;;;;;0.50;0.50;;;9.80;99.90;;;;;;6221150;23;20043;-81
2024/02/06 06:02:40;;;;;;;1.95;1.75;;;9.80;99.90;;;;;;6221832;23;20040;-80
2024/02/06 06:05:07;;;;;;;2.92;2.67;;;9.80;99.90;;;;;;6244876;23;20360;-80
2024/02/06 06:07:33;;;;;;;0.63;0.63;;;9.80;99.90;;;;;;6194165;23;20016;-81
2024/02/06 06:09:59;;;;;;;0.85;0.85;;;9.90;99.90;;;;;;6246963;23;20470;-80
2024/02/06 06:12:24;;;;;;;1.05;1.05;;;9.90;99.90;;;;;;6219639;23;20020;-80
2024/02/06 06:14:50;;;;;;;0.80;0.73;;;9.80;99.90;;;;;;6194055;23;20023;-81
2024/02/06 06:17:16;;;;;;;0.32;0.32;;;9.80;99.90;;;;;;6219797;23;20078;-81
2024/02/06 06:19:43;;;;;;;0.40;0.40;;;9.90;99.90;;;;;;6196894;23;20016;-81
2024/02/06 06:22:09;;;;;;;1.88;1.73;;;9.90;99.90;;;;;;6219626;23;20023;-81
2024/02/06 06:24:34;;;;;;;;;;;9.90;99.90;;;;;;6245133;23;20012;-80
2024/02/06 06:27:00;;;;;;;0.45;0.45;;;9.90;99.90;;;;;;6218803;23;19911;-82
2024/02/06 06:29:26;;;;;;;0.38;0.38;;;9.90;99.90;;;;;;6194831;23;20023;-82
2024/02/06 06:31:52;;;;;;;0.40;0.40;;;9.90;99.90;;;;;;6194292;23;20016;-80
2024/02/06 06:34:17;;;;;;;0.30;0.30;;;9.90;99.90;;;;;;6219747;23;20100;-81
2024/02/06 06:36:43;;;;;;;0.70;0.70;;;9.90;99.90;;;;;;6244308;23;20023;-80
2024/02/06 06:39:11;;;;;;;27.58;3.30;;;9.90;99.90;;;;;;6242791;22;20042;-80
2024/02/06 06:41:38;;;;;;;0.40;0.40;;;9.90;99.90;;;;;;6244502;23;20015;-80
2024/02/06 06:44:04;;;;;;;0.60;0.60;;;9.90;99.90;;;;;;6194463;23;20020;-80
2024/02/06 06:46:30;;;;;;;;;;;9.90;99.90;;;;;;6220899;23;20016;-80
2024/02/06 06:48:56;;;;;;;1.10;1.02;;;9.90;99.90;;;;;;6221125;23;19912;-80
2024/02/06 06:51:21;;;;;;;0.65;0.63;;;9.90;99.90;;;;;;6247622;22;20023;-80
2024/02/06 06:53:49;;;;;;;1.35;0.70;;;10.00;99.90;;;;;;6222154;23;20027;-81
2024/02/06 06:56:16;;;;;;;1.20;1.17;;;9.90;99.90;;;;;;6248479;22;20012;-81
2024/02/06 06:58:42;;;;;;;0.40;0.40;;;10.00;99.90;;;;;;6249434;23;20420;-80
2024/02/06 07:01:07;;;;;;;0.50;0.50;;;10.00;99.90;;;;;;6247219;22;20016;-80
2024/02/06 07:03:39;;;;;;;0.63;0.63;;;10.00;99.90;;;;;;6246872;23;20085;-81
2024/02/06 07:06:07;;;;;;;0.85;0.85;;;10.00;99.90;;;;;;6248027;23;20515;-81
2024/02/06 07:08:34;;;;;;;0.68;0.68;;;10.00;99.90;;;;;;6252402;22;20042;-80
2024/02/06 07:11:03;;;;;;;1.40;1.30;;;9.90;99.90;;;;;;6254525;22;20016;-80
2024/02/06 07:13:32;;;;;;;2.50;1.60;;;10.00;99.90;;;;;;6254526;22;20091;-81
2024/02/06 07:15:58;;;;;;;0.70;0.70;;;10.00;99.90;;;;;;6251879;23;20024;-81
2024/02/06 07:18:25;;;;;;;3.38;1.92;;;9.90;99.90;;;;;;6250706;23;20012;-80
2024/02/06 07:20:51;;;;;;;0.50;0.50;;;9.90;99.90;;;;;;6200331;23;20016;-82
2024/02/06 07:23:20;;;;;;;2.50;0.60;;;9.80;99.90;;;;;;6252595;22;20022;-80
2024/02/06 07:25:46;;;;;;;0.40;0.40;;;9.70;99.90;;;;;;6250808;23;20087;-78
2024/02/06 07:28:11;;;;;;;0.55;0.55;;;9.70;99.90;;;;;;6254118;22;20075;-80
2024/02/06 07:30:37;;;;;;;1.45;0.52;;;9.60;99.90;;;;;;6178412;23;20039;-80
2024/02/06 07:33:03;;;;;;;0.80;0.80;;;9.60;99.90;;;;;;6225331;23;20068;-81
2024/02/06 07:35:32;;;;;;;0.55;0.55;;;9.50;99.90;;;;;;6252039;23;20527;-81
2024/02/06 07:38:05;;;;;;;0.60;0.60;;;9.50;99.90;;;;;;6225011;23;20016;-79
2024/02/06 07:40:45;;;;;;;1.00;1.00;;;9.50;99.90;;;;;;6231812;23;20071;-81
2024/02/06 07:43:20;;;;;;;0.40;0.40;;;9.50;99.90;;;;;;6254462;23;20016;-81
2024/02/06 07:45:50;;;;;;;0.40;0.40;;;9.40;99.90;;;;;;6257600;22;20016;-83
2024/02/06 07:48:25;;;;;;;0.40;0.40;;;9.40;99.90;;;;;;6255112;23;20420;-81
2024/02/06 07:50:51;;;;;;;0.73;0.73;;;9.40;99.90;;;;;;6249891;23;20057;-79
2024/02/06 07:53:18;;;;;;;0.68;0.68;;;9.40;99.90;;;;;;6221840;23;20016;-78
2024/02/06 07:55:43;;;;;;;1.42;1.33;;;9.40;99.90;;;;;;6198361;23;20039;-77
2024/02/06 07:58:09;;;;;;;0.40;0.40;;;9.30;99.90;;;;;;6249117;23;20065;-79
2024/02/06 08:00:35;;;;;;;;;;;9.30;99.90;;;;;;6250030;22;20078;-80
2024/02/06 08:03:05;;;;;;;0.70;0.70;;;9.30;99.90;;;;;;6249750;23;19956;-80
2024/02/06 08:05:41;;;;;;;0.80;0.80;;;9.30;99.90;;;;;;6225058;23;20569;-82
2024/02/06 08:08:08;;;;;;;0.98;0.98;;;9.40;99.90;;;;;;6250783;23;20024;-79
2024/02/06 08:10:35;;;;;;;;;;;9.40;99.90;;;;;;6250475;23;20070;-80
2024/02/06 08:13:06;;;;;;;0.40;0.40;;;9.50;99.90;;;;;;6250673;23;19922;-81
2024/02/06 08:15:32;;;;;;;0.50;0.50;;;9.50;99.90;;;;;;6251018;22;20348;-79
2024/02/06 08:17:59;;;;;;;0.43;0.43;;;9.50;99.90;;;;;;6227127;23;20090;-82
2024/02/06 08:20:28;;;;;;;0.93;0.93;;;9.60;99.90;;;;;;6251308;23;20020;-79
2024/02/06 08:22:53;;;;;;;1.02;0.98;;;9.50;99.90;;;;;;6252423;23;20019;-80
2024/02/06 08:25:21;;;;;;;0.50;0.50;;;9.50;99.90;;;;;;6225086;23;20012;-81
2024/02/06 08:27:48;;;;;;;0.30;0.30;;;9.60;99.90;;;;;;6223307;23;20075;-81
2024/02/06 08:30:18;;;;;;;0.40;0.40;;;9.60;99.90;;;;;;6251706;23;20460;-81
2024/02/06 08:32:51;;;;;;;0.50;0.50;;;9.60;99.90;;;;;;6247018;23;20020;-80
2024/02/06 08:35:17;;;;;;;0.88;0.88;;;9.60;99.90;;;;;;6222363;23;20312;-80
2024/02/06 08:37:46;;;;;;;0.40;0.40;;;9.70;99.90;;;;;;6252524;22;20143;-80
2024/02/06 08:40:17;;;;;;;0.40;0.40;;;9.70;99.90;;;;;;6247184;23;20012;-81
2024/02/06 08:42:43;;;;;;;0.30;0.30;;;9.80;99.90;;;;;;6221363;23;20009;-81
2024/02/06 08:45:13;;;;;;;0.40;0.40;;;9.90;99.90;;;;;;6249357;22;20070;-82
2024/02/06 08:47:39;;;;;;;0.47;0.47;;;9.90;99.90;;;;;;6251799;22;20073;-81
2024/02/06 08:50:06;;;;;;;;;;;10.00;99.90;;;;;;6248728;22;20054;-80
2024/02/06 08:52:32;;;;;;;0.40;0.40;;;10.10;99.90;;;;;;6221908;23;19970;-80
2024/02/06 08:54:59;;;;;;;0.50;0.50;;;10.10;99.90;;;;;;6247808;23;20028;-80
2024/02/06 08:57:24;;;;;;;0.50;0.50;;;10.20;99.90;;;;;;6223182;23;20044;-81
2024/02/06 08:59:56;;;;;;;0.38;0.38;;;10.20;99.90;;;;;;6230052;23;20092;-80
2024/02/06 09:02:24;;;;;;;0.50;0.50;;;10.30;99.90;;;;;;6254316;23;20012;-80
2024/02/06 09:04:52;;;;;;;0.30;0.30;;;10.30;99.90;;;;;;6256447;22;20019;-79
2024/02/06 09:07:18;;;;;;;0.30;0.30;;;10.30;99.90;;;;;;6203092;23;20024;-80
2024/02/06 09:09:44;;;;;;;0.50;0.50;;;10.30;99.90;;;;;;6226485;23;20087;-80
2024/02/06 09:12:09;;;;;;;0.40;0.40;;;10.40;99.90;;;;;;6251295;23;20023;-77
2024/02/06 09:14:37;;;;;;;0.50;0.50;;;10.40;99.90;;;;;;6254012;23;20012;-79
2024/02/06 09:17:06;;;;;;;0.60;0.60;;;10.40;99.90;;;;;;6251267;23;20091;-79
2024/02/06 09:19:43;;;;;;;4.78;0.70;;;10.40;99.90;;;;;;6249054;22;20023;-81
2024/02/06 09:22:12;;;;;;;1.02;1.02;;;10.50;99.90;;;;;;6253670;22;20016;-81
2024/02/06 09:24:37;;;;;;;0.80;0.80;;;10.50;99.90;;;;;;6252760;22;20016;-79
2024/02/06 09:27:03;;;;;;;2.05;0.85;;;10.50;99.90;;;;;;6248454;23;20130;-80
2024/02/06 09:29:30;;;;;;;1.83;1.42;;;10.50;99.90;;;;;;6250365;23;20071;-81
2024/02/06 09:31:56;;;;;;;0.50;0.50;;;10.50;99.90;;;;;;6251446;23;20047;-79
2024/02/06 09:34:23;;;;;;;0.55;0.55;;;10.60;99.90;;;;;;6228096;23;20023;-80
2024/02/06 09:36:50;;;;;;;0.98;0.98;;;10.60;99.90;;;;;;6258695;22;20071;-81
2024/02/06 09:39:18;;;;;;;8.25;0.60;;;10.50;99.90;;;;;;6222674;23;20032;-81
2024/02/06 09:41:46;;;;;;;1.17;0.63;;;10.60;99.90;;;;;;6246514;22;20012;-79
2024/02/06 09:44:13;;;;;;;0.30;0.30;;;10.60;99.90;;;;;;6245056;23;20052;-81
2024/02/06 09:46:45;;;;;;;0.55;0.55;;;10.60;99.90;;;;;;6247802;23;20027;-81
2024/02/06 09:49:11;;;;;;;0.50;0.50;;;10.70;99.90;;;;;;6248218;23;20019;-82
2024/02/06 09:51:42;;;;;;;;;;;10.60;99.90;;;;;;6250280;22;20553;-79
2024/02/06 09:54:13;;;;;;;0.20;0.20;;;10.70;99.90;;;;;;6246585;23;20365;-81
2024/02/06 09:56:40;;;;;;;0.32;0.32;;;10.70;99.90;;;;;;6248410;23;20095;-81
2024/02/06 09:59:06;;;;;;;0.40;0.40;;;10.70;99.90;;;;;;6251630;22;20015;-79
2024/02/06 10:01:37;;;;;;;0.32;0.32;;;10.70;99.90;;;;;;6246915;23;20016;-82
2024/02/06 10:04:08;;;;;;;0.55;0.55;;;10.70;99.90;;;;;;6254549;22;20586;-81
2024/02/06 10:06:35;;;;;;;0.30;0.30;;;10.70;99.90;;;;;;6249469;22;20087;-81
2024/02/06 10:09:02;;;;;;;0.60;0.57;;;10.70;99.90;;;;;;6228261;23;20031;-81
2024/02/06 10:11:33;;;;;;;0.60;0.60;;;10.70;99.90;;;;;;6251266;23;20023;-80
2024/02/06 10:13:59;;;;;;;0.82;0.82;;;10.70;99.90;;;;;;6252872;23;20467;-79
2024/02/06 10:16:31;;;;;;;0.40;0.40;;;10.70;99.90;;;;;;6224562;23;20023;-82
2024/02/06 10:18:57;;;;;;;0.40;0.40;;;10.70;99.90;;;;;;6250557;23;20358;-80
2024/02/06 10:21:27;;;;;;;1.65;1.33;;;10.80;99.90;;;;;;6225567;23;20008;-80
2024/02/06 10:24:01;;;;;;;0.50;0.50;;;10.80;99.90;;;;;;6252923;23;20024;-80
2024/02/06 10:26:26;;;;;;;0.40;0.40;;;10.80;99.90;;;;;;6223384;23;20060;-81
2024/02/06 10:29:03;;;;;;;;;;;10.90;99.90;;;;;;6249734;23;20031;-81
2024/02/06 10:31:30;;;;;;;3.08;1.52;;;10.90;99.90;;;;;;6252092;23;19911;-80
2024/02/06 10:34:11;;;;;;;0.45;0.45;;;10.90;99.90;;;;;;6250055;23;20128;-79
2024/02/06 10:36:40;;;;;;;0.85;0.85;;;11.00;99.90;;;;;;6251756;22;20024;-79
2024/02/06 10:39:09;;;;;;;2.08;1.95;;;11.00;99.90;;;;;;6198874;23;20012;-80
2024/02/06 10:41:36;;;;;;;1.65;0.40;;;11.10;99.90;;;;;;6254063;22;20453;-80
2024/02/06 10:44:11;;;;;;;2.80;0.65;;;11.10;99.90;;;;;;6250225;23;20035;-80
2024/02/06 10:46:39;;;;;;;0.35;0.35;;;11.10;99.90;;;;;;6251862;22;20024;-80
2024/02/06 10:49:11;;;;;;;0.68;0.68;;;11.20;99.90;;;;;;6253259;22;20044;-83
2024/02/06 10:51:36;;;;;;;0.60;0.60;;;11.20;99.90;;;;;;6250350;22;20016;-80
2024/02/06 10:54:03;;;;;;;2.10;0.45;;;11.20;99.90;;;;;;6250507;22;20019;-78
2024/02/06 10:56:33;;;;;;;0.80;0.80;;;11.20;99.90;;;;;;6248121;23;20016;-80
2024/02/06 10:59:05;;;;;;;0.40;0.40;;;11.30;99.90;;;;;;6251588;22;20016;-82
2024/02/06 11:01:37;;;;;;;1.48;1.40;;;11.30;99.90;;;;;;6248912;23;20343;-80
2024/02/06 11:04:14;;;;;;;0.50;0.50;;;11.40;99.90;;;;;;6251452;22;20444;-80
2024/02/06 11:07:05;;;;;;;0.43;0.43;;;11.40;99.90;;;;;;6248693;22;20016;-78
2024/02/06 11:09:53;;;;;;;0.30;0.30;;;11.40;99.90;;;;;;6250808;22;20016;-81
2024/02/06 11:12:20;;;;;;;0.50;0.50;;;11.40;99.90;;;;;;6222498;23;20020;-83
2024/02/06 11:14:48;;;;;;;0.98;0.98;;;11.40;99.90;;;;;;6228760;23;20014;-80
2024/02/06 11:17:16;;;;;;;0.63;0.63;;;11.40;99.90;;;;;;6220599;23;20452;-81
2024/02/06 11:19:48;;;;;;;0.30;0.30;;;11.50;99.90;;;;;;6252493;23;20121;-82
2024/02/06 11:22:30;;;;;;;0.40;0.40;;;11.50;99.90;;;;;;6228218;23;20066;-82
2024/02/06 11:24:57;;;;;;;0.38;0.38;;;11.50;99.90;;;;;;6205993;23;20027;-85
2024/02/06 11:27:24;;;;;;;0.50;0.50;;;11.50;99.90;;;;;;6202532;23;20114;-83
2024/02/06 11:29:51;;;;;;;0.30;0.30;;;11.50;99.90;;;;;;6210003;23;20019;-84
2024/02/06 11:32:17;;;;;;;0.40;0.40;;;11.50;99.90;;;;;;6264885;22;20095;-85
2024/02/06 11:34:47;;;;;;;;;;;11.60;99.90;;;;;;6227824;23;20036;-83
2024/02/06 11:37:23;;;;;;;0.95;0.95;;;11.60;99.90;;;;;;6202116;23;19943;-85
2024/02/06 11:39:49;;;;;;;0.60;0.60;;;11.60;99.90;;;;;;6228082;23;20020;-82
2024/02/06 11:42:23;;;;;;;2.05;1.85;;;11.70;99.90;;;;;;6255794;23;20018;-79
2024/02/06 11:44:48;;;;;;;4.75;1.80;;;11.70;99.90;;;;;;6225870;23;20072;-81
2024/02/06 11:47:22;;;;;;;0.50;0.50;;;11.70;99.90;;;;;;6251988;23;20008;-81
2024/02/06 11:49:49;;;;;;;0.80;0.60;;;11.70;99.90;;;;;;6255855;23;20024;-80
2024/02/06 11:52:21;;;;;;;0.40;0.40;;;11.70;99.90;;;;;;6253773;23;20016;-82
2024/02/06 11:54:49;;;;;;;0.85;0.85;;;11.70;99.90;;;;;;6219746;23;20043;-79
2024/02/06 11:57:20;;;;;;;0.20;0.20;;;11.70;99.90;;;;;;6228998;23;20072;-82
2024/02/06 11:59:47;;;;;;;0.30;0.30;;;11.60;99.90;;;;;;6225619;23;20016;-80
2024/02/06 12:02:13;;;;;;;12.02;1.10;;;11.70;99.90;;;;;;6200851;23;20012;-81
2024/02/06 12:04:39;;;;;;;1.00;0.98;;;11.70;99.90;;;;;;6209014;23;20014;-80
2024/02/06 12:07:05;;;;;;;1.05;0.88;;;11.70;99.90;;;;;;6224322;23;20012;-80
2024/02/06 12:09:41;;;;;;;0.57;0.57;;;11.70;99.90;;;;;;6250186;22;20450;-80
2024/02/06 12:12:08;;;;;;;2.47;1.20;;;11.60;99.90;;;;;;6224975;23;20020;-80
2024/02/06 12:14:34;;;;;;;20.60;2.88;;;11.60;99.90;;;;;;6202468;23;20532;-80
2024/02/06 12:17:00;;;;;;;3.30;0.60;;;11.60;99.90;;;;;;6252840;23;20016;-82
2024/02/06 12:19:27;;;;;;;0.30;0.30;;;11.60;99.90;;;;;;6252275;23;20087;-81
2024/02/06 12:22:00;;;;;;;0.55;0.55;;;11.60;99.90;;;;;;6199492;23;20020;-82
2024/02/06 12:24:31;;;;;;;0.38;0.38;;;11.60;99.90;;;;;;6154390;23;20019;-82
2024/02/06 12:27:04;;;;;;;1.02;0.70;;;11.60;99.90;;;;;;6253812;23;20095;-80
2024/02/06 12:29:42;;;;;;;0.40;0.40;;;11.60;99.90;;;;;;6248731;23;20013;-77
2024/02/06 12:32:08;;;;;;;0.60;0.60;;;11.70;99.90;;;;;;6158112;23;20099;-80
2024/02/06 12:34:34;;;;;;;;;;;11.70;99.90;;;;;;6189755;23;20023;-79
2024/02/06 12:37:04;;;;;;;10.90;2.08;;;11.70;99.90;;;;;;6247384;23;20224;-79
2024/02/06 12:39:30;;;;;;;0.45;0.45;;;11.70;99.90;;;;;;6247767;23;20470;-79
2024/02/06 12:42:08;;;;;;;5.15;0.73;;;11.70;99.90;;;;;;6218457;23;20016;-80
2024/02/06 12:44:33;;;;;;;0.40;0.40;;;11.70;99.90;;;;;;6223374;23;20341;-80
2024/02/06 12:47:05;;;;;;;0.60;0.60;;;11.70;99.90;;;;;;6221406;23;20432;-79
2024/02/06 12:49:34;;;;;;;1.10;1.10;;;11.70;99.90;;;;;;6222171;23;20023;-81
2024/02/06 12:52:01;;;;;;;0.30;0.30;;;11.70;99.90;;;;;;6244873;23;20031;-80
2024/02/06 12:54:26;;;;;;;;;;;11.70;99.90;;;;;;6224229;23;20027;-81
2024/02/06 12:56:59;;;;;;;0.70;0.50;;;11.70;99.90;;;;;;6249198;23;20251;-80
2024/02/06 12:59:31;;;;;;;2.78;2.55;;;11.70;99.90;;;;;;6253395;23;20095;-79
2024/02/06 13:02:05;;;;;;;0.68;0.68;;;11.70;99.90;;;;;;6224880;23;20012;-80